sensor_id;sensor_type;location;lat;lon;timestamp;P1;durP1;ratioP1;P2;durP2;ratioP2
77214;SDS011;66210;53.282;9.864;2024-03-23T00:55:41;12.75;;;3.00;;
77214;SDS011;66210;53.282;9.864;2024-03-23T00:58:08;11.45;;;2.67;;
77214;SDS011;66210;53.282;9.864;2024-03-23T01:00:34;14.13;;;2.85;;
77214;SDS011;66210;53.282;9.864;2024-03-23T01:03:00;12.32;;;2.75;;
77214;SDS011;66210;53.282;9.864;2024-03-23T01:05:25;12.57;;;3.08;;
77214;SDS011;66210;53.282;9.864;2024-03-23T01:07:51;13.40;;;2.70;;
77214;SDS011;66210;53.282;9.864;2024-03-23T01:10:17;14.70;;;3.17;;
77214;SDS011;66210;53.282;9.864;2024-03-23T01:12:44;14.05;;;3.42;;
77214;SDS011;66210;53.282;9.864;2024-03-23T01:15:09;9.85;;;2.15;;
77214;SDS011;66210;53.282;9.864;2024-03-23T01:17:35;9.65;;;2.65;;
77214;SDS011;66210;53.282;9.864;2024-03-23T01:20:01;8.05;;;2.35;;
77214;SDS011;66210;53.282;9.864;2024-03-23T01:22:27;9.90;;;2.63;;
77214;SDS011;66210;53.282;9.864;2024-03-23T01:24:53;11.77;;;2.47;;
77214;SDS011;66210;53.282;9.864;2024-03-23T01:27:18;13.93;;;2.42;;
77214;SDS011;66210;53.282;9.864;2024-03-23T01:29:44;15.63;;;2.95;;
77214;SDS011;66210;53.282;9.864;2024-03-23T01:32:10;11.57;;;2.22;;
77214;SDS011;66210;53.282;9.864;2024-03-23T01:34:36;15.02;;;3.13;;
77214;SDS011;66210;53.282;9.864;2024-03-23T01:37:02;10.30;;;2.70;;
77214;SDS011;66210;53.282;9.864;2024-03-23T01:39:28;7.03;;;2.30;;
77214;SDS011;66210;53.282;9.864;2024-03-23T01:41:53;10.38;;;2.90;;
77214;SDS011;66210;53.282;9.864;2024-03-23T01:44:19;11.15;;;2.75;;
77214;SDS011;66210;53.282;9.864;2024-03-23T01:46:45;11.32;;;2.67;;
77214;SDS011;66210;53.282;9.864;2024-03-23T01:49:11;7.65;;;2.30;;
77214;SDS011;66210;53.282;9.864;2024-03-23T01:51:37;9.52;;;2.00;;
77214;SDS011;66210;53.282;9.864;2024-03-23T01:54:03;11.05;;;2.35;;
77214;SDS011;66210;53.282;9.864;2024-03-23T01:56:30;11.48;;;2.20;;
77214;SDS011;66210;53.282;9.864;2024-03-23T01:58:59;10.23;;;2.30;;
77214;SDS011;66210;53.282;9.864;2024-03-23T02:01:26;12.88;;;2.55;;
77214;SDS011;66210;53.282;9.864;2024-03-23T02:03:52;6.25;;;2.65;;
77214;SDS011;66210;53.282;9.864;2024-03-23T02:06:18;11.52;;;2.53;;
77214;SDS011;66210;53.282;9.864;2024-03-23T02:08:43;10.27;;;2.30;;
77214;SDS011;66210;53.282;9.864;2024-03-23T02:11:09;11.07;;;3.08;;
77214;SDS011;66210;53.282;9.864;2024-03-23T02:13:35;12.13;;;3.08;;
77214;SDS011;66210;53.282;9.864;2024-03-23T02:16:01;9.35;;;2.17;;
77214;SDS011;66210;53.282;9.864;2024-03-23T02:18:27;10.35;;;2.47;;
77214;SDS011;66210;53.282;9.864;2024-03-23T02:20:52;10.73;;;2.60;;
77214;SDS011;66210;53.282;9.864;2024-03-23T02:23:18;7.55;;;2.10;;
77214;SDS011;66210;53.282;9.864;2024-03-23T02:25:44;15.80;;;2.97;;
77214;SDS011;66210;53.282;9.864;2024-03-23T02:28:10;7.18;;;2.38;;
77214;SDS011;66210;53.282;9.864;2024-03-23T02:30:36;9.45;;;2.40;;
77214;SDS011;66210;53.282;9.864;2024-03-23T02:33:05;10.05;;;2.72;;
77214;SDS011;66210;53.282;9.864;2024-03-23T02:35:31;10.38;;;2.85;;
77214;SDS011;66210;53.282;9.864;2024-03-23T02:37:56;7.28;;;2.45;;
77214;SDS011;66210;53.282;9.864;2024-03-23T02:40:25;7.47;;;2.42;;
77214;SDS011;66210;53.282;9.864;2024-03-23T02:42:51;10.50;;;2.63;;
77214;SDS011;66210;53.282;9.864;2024-03-23T02:45:18;8.20;;;2.17;;
77214;SDS011;66210;53.282;9.864;2024-03-23T02:47:43;7.25;;;1.98;;
77214;SDS011;66210;53.282;9.864;2024-03-23T02:50:09;9.52;;;2.72;;
77214;SDS011;66210;53.282;9.864;2024-03-23T02:52:35;12.48;;;2.67;;
77214;SDS011;66210;53.282;9.864;2024-03-23T02:55:01;11.30;;;2.83;;
77214;SDS011;66210;53.282;9.864;2024-03-23T02:57:28;9.38;;;2.80;;
77214;SDS011;66210;53.282;9.864;2024-03-23T02:59:54;11.23;;;2.28;;
77214;SDS011;66210;53.282;9.864;2024-03-23T03:02:19;13.70;;;2.95;;
77214;SDS011;66210;53.282;9.864;2024-03-23T03:04:46;11.43;;;2.55;;
77214;SDS011;66210;53.282;9.864;2024-03-23T03:07:12;10.45;;;2.30;;
77214;SDS011;66210;53.282;9.864;2024-03-23T03:09:37;10.90;;;2.30;;
77214;SDS011;66210;53.282;9.864;2024-03-23T03:12:05;10.30;;;2.67;;
77214;SDS011;66210;53.282;9.864;2024-03-23T03:14:31;10.35;;;3.05;;
77214;SDS011;66210;53.282;9.864;2024-03-23T03:16:56;8.85;;;2.22;;
77214;SDS011;66210;53.282;9.864;2024-03-23T03:19:22;14.70;;;3.03;;
77214;SDS011;66210;53.282;9.864;2024-03-23T03:21:48;10.93;;;2.25;;
77214;SDS011;66210;53.282;9.864;2024-03-23T03:24:13;9.13;;;2.15;;
77214;SDS011;66210;53.282;9.864;2024-03-23T03:26:39;8.15;;;2.15;;
77214;SDS011;66210;53.282;9.864;2024-03-23T03:29:04;5.38;;;2.22;;
77214;SDS011;66210;53.282;9.864;2024-03-23T03:31:30;10.30;;;2.28;;
77214;SDS011;66210;53.282;9.864;2024-03-23T03:33:56;8.48;;;2.47;;
77214;SDS011;66210;53.282;9.864;2024-03-23T03:36:22;11.23;;;2.58;;
77214;SDS011;66210;53.282;9.864;2024-03-23T03:38:48;11.80;;;2.47;;
77214;SDS011;66210;53.282;9.864;2024-03-23T03:41:13;7.25;;;2.20;;
77214;SDS011;66210;53.282;9.864;2024-03-23T03:43:39;10.98;;;2.13;;
77214;SDS011;66210;53.282;9.864;2024-03-23T03:46:04;6.78;;;2.08;;
77214;SDS011;66210;53.282;9.864;2024-03-23T03:48:30;12.23;;;2.55;;
77214;SDS011;66210;53.282;9.864;2024-03-23T03:50:56;12.98;;;2.50;;
77214;SDS011;66210;53.282;9.864;2024-03-23T03:53:21;10.95;;;2.30;;
77214;SDS011;66210;53.282;9.864;2024-03-23T03:55:47;8.35;;;2.35;;
77214;SDS011;66210;53.282;9.864;2024-03-23T03:58:13;12.10;;;2.70;;
77214;SDS011;66210;53.282;9.864;2024-03-23T04:00:38;17.67;;;3.05;;
77214;SDS011;66210;53.282;9.864;2024-03-23T04:03:04;13.48;;;2.90;;
77214;SDS011;66210;53.282;9.864;2024-03-23T04:05:30;9.13;;;2.13;;
77214;SDS011;66210;53.282;9.864;2024-03-23T04:07:56;14.95;;;2.90;;
77214;SDS011;66210;53.282;9.864;2024-03-23T04:10:21;12.15;;;2.90;;
77214;SDS011;66210;53.282;9.864;2024-03-23T04:12:47;7.00;;;1.90;;
77214;SDS011;66210;53.282;9.864;2024-03-23T04:15:13;10.60;;;2.17;;
77214;SDS011;66210;53.282;9.864;2024-03-23T04:17:39;9.70;;;2.05;;
77214;SDS011;66210;53.282;9.864;2024-03-23T04:20:05;7.28;;;2.25;;
77214;SDS011;66210;53.282;9.864;2024-03-23T04:22:37;6.55;;;2.33;;
77214;SDS011;66210;53.282;9.864;2024-03-23T04:25:03;13.38;;;2.50;;
77214;SDS011;66210;53.282;9.864;2024-03-23T04:27:36;10.50;;;2.33;;
77214;SDS011;66210;53.282;9.864;2024-03-23T04:30:03;11.18;;;2.65;;
77214;SDS011;66210;53.282;9.864;2024-03-23T04:32:31;14.05;;;2.70;;
77214;SDS011;66210;53.282;9.864;2024-03-23T04:34:57;8.35;;;2.83;;
77214;SDS011;66210;53.282;9.864;2024-03-23T04:37:22;16.70;;;2.70;;
77214;SDS011;66210;53.282;9.864;2024-03-23T04:39:49;6.80;;;2.42;;
77214;SDS011;66210;53.282;9.864;2024-03-23T04:42:17;9.02;;;2.35;;
77214;SDS011;66210;53.282;9.864;2024-03-23T04:44:43;11.15;;;2.30;;
77214;SDS011;66210;53.282;9.864;2024-03-23T04:47:10;15.18;;;3.60;;
77214;SDS011;66210;53.282;9.864;2024-03-23T04:49:36;11.05;;;2.78;;
77214;SDS011;66210;53.282;9.864;2024-03-23T04:52:03;10.35;;;2.00;;
77214;SDS011;66210;53.282;9.864;2024-03-23T04:54:30;7.20;;;2.50;;
77214;SDS011;66210;53.282;9.864;2024-03-23T04:56:58;7.32;;;2.08;;
77214;SDS011;66210;53.282;9.864;2024-03-23T04:59:23;7.07;;;2.35;;
77214;SDS011;66210;53.282;9.864;2024-03-23T05:01:49;5.05;;;2.47;;
77214;SDS011;66210;53.282;9.864;2024-03-23T05:04:15;10.55;;;2.65;;
77214;SDS011;66210;53.282;9.864;2024-03-23T05:06:41;8.05;;;2.25;;
77214;SDS011;66210;53.282;9.864;2024-03-23T05:09:07;9.80;;;2.58;;
77214;SDS011;66210;53.282;9.864;2024-03-23T05:11:33;10.88;;;3.38;;
77214;SDS011;66210;53.282;9.864;2024-03-23T05:13:59;12.70;;;2.67;;
77214;SDS011;66210;53.282;9.864;2024-03-23T05:16:26;8.15;;;2.30;;
77214;SDS011;66210;53.282;9.864;2024-03-23T05:18:52;6.43;;;2.05;;
77214;SDS011;66210;53.282;9.864;2024-03-23T05:21:17;10.93;;;2.67;;
77214;SDS011;66210;53.282;9.864;2024-03-23T05:23:43;13.55;;;2.63;;
77214;SDS011;66210;53.282;9.864;2024-03-23T05:26:09;12.80;;;2.85;;
77214;SDS011;66210;53.282;9.864;2024-03-23T05:28:35;14.40;;;2.67;;
77214;SDS011;66210;53.282;9.864;2024-03-23T05:31:01;11.38;;;2.47;;
77214;SDS011;66210;53.282;9.864;2024-03-23T05:33:27;14.75;;;3.20;;
77214;SDS011;66210;53.282;9.864;2024-03-23T05:35:56;12.40;;;2.85;;
77214;SDS011;66210;53.282;9.864;2024-03-23T05:38:23;10.55;;;2.83;;
77214;SDS011;66210;53.282;9.864;2024-03-23T05:40:53;10.90;;;2.85;;
77214;SDS011;66210;53.282;9.864;2024-03-23T05:43:20;6.32;;;2.58;;
77214;SDS011;66210;53.282;9.864;2024-03-23T05:45:46;11.77;;;2.67;;
77214;SDS011;66210;53.282;9.864;2024-03-23T05:48:11;9.85;;;3.00;;
77214;SDS011;66210;53.282;9.864;2024-03-23T05:50:37;7.90;;;2.63;;
77214;SDS011;66210;53.282;9.864;2024-03-23T05:53:04;9.32;;;2.85;;
77214;SDS011;66210;53.282;9.864;2024-03-23T05:55:30;15.55;;;2.90;;
77214;SDS011;66210;53.282;9.864;2024-03-23T05:57:57;9.30;;;2.55;;
77214;SDS011;66210;53.282;9.864;2024-03-23T06:00:23;8.98;;;2.60;;
77214;SDS011;66210;53.282;9.864;2024-03-23T06:02:51;9.38;;;2.88;;
77214;SDS011;66210;53.282;9.864;2024-03-23T06:05:17;9.63;;;2.40;;
77214;SDS011;66210;53.282;9.864;2024-03-23T06:07:43;8.45;;;2.53;;
77214;SDS011;66210;53.282;9.864;2024-03-23T06:10:09;9.70;;;2.55;;
77214;SDS011;66210;53.282;9.864;2024-03-23T06:12:35;13.55;;;3.00;;
77214;SDS011;66210;53.282;9.864;2024-03-23T06:15:00;13.98;;;2.78;;
77214;SDS011;66210;53.282;9.864;2024-03-23T06:17:27;13.18;;;2.70;;
77214;SDS011;66210;53.282;9.864;2024-03-23T06:19:53;8.57;;;2.85;;
77214;SDS011;66210;53.282;9.864;2024-03-23T06:22:18;14.93;;;3.17;;
77214;SDS011;66210;53.282;9.864;2024-03-23T06:24:44;13.23;;;3.05;;
77214;SDS011;66210;53.282;9.864;2024-03-23T06:27:10;10.23;;;3.22;;
77214;SDS011;66210;53.282;9.864;2024-03-23T06:29:36;8.80;;;2.63;;
77214;SDS011;66210;53.282;9.864;2024-03-23T06:32:02;11.88;;;3.25;;
77214;SDS011;66210;53.282;9.864;2024-03-23T06:34:29;17.23;;;2.95;;
77214;SDS011;66210;53.282;9.864;2024-03-23T06:36:54;14.10;;;3.47;;
77214;SDS011;66210;53.282;9.864;2024-03-23T06:39:20;14.88;;;3.50;;
77214;SDS011;66210;53.282;9.864;2024-03-23T06:41:51;15.77;;;3.58;;
77214;SDS011;66210;53.282;9.864;2024-03-23T06:44:18;18.35;;;3.58;;
77214;SDS011;66210;53.282;9.864;2024-03-23T06:46:45;10.13;;;3.15;;
77214;SDS011;66210;53.282;9.864;2024-03-23T06:49:11;15.93;;;3.65;;
77214;SDS011;66210;53.282;9.864;2024-03-23T06:51:37;14.10;;;3.20;;
77214;SDS011;66210;53.282;9.864;2024-03-23T06:54:05;26.80;;;4.07;;
77214;SDS011;66210;53.282;9.864;2024-03-23T06:56:31;15.68;;;3.28;;
77214;SDS011;66210;53.282;9.864;2024-03-23T06:58:57;18.83;;;3.47;;
77214;SDS011;66210;53.282;9.864;2024-03-23T07:01:23;13.38;;;3.08;;
77214;SDS011;66210;53.282;9.864;2024-03-23T07:03:49;15.18;;;4.10;;
77214;SDS011;66210;53.282;9.864;2024-03-23T07:06:15;12.40;;;3.42;;
77214;SDS011;66210;53.282;9.864;2024-03-23T07:08:41;23.50;;;3.72;;
77214;SDS011;66210;53.282;9.864;2024-03-23T07:11:06;14.80;;;3.60;;
77214;SDS011;66210;53.282;9.864;2024-03-23T07:13:32;14.48;;;3.97;;
77214;SDS011;66210;53.282;9.864;2024-03-23T07:15:57;15.07;;;4.18;;
77214;SDS011;66210;53.282;9.864;2024-03-23T07:18:25;19.23;;;3.88;;
77214;SDS011;66210;53.282;9.864;2024-03-23T07:20:51;18.88;;;4.18;;
77214;SDS011;66210;53.282;9.864;2024-03-23T07:23:21;17.67;;;3.90;;
77214;SDS011;66210;53.282;9.864;2024-03-23T07:25:57;14.20;;;3.47;;
77214;SDS011;66210;53.282;9.864;2024-03-23T07:28:26;23.75;;;3.78;;
77214;SDS011;66210;53.282;9.864;2024-03-23T07:31:07;14.43;;;3.70;;
77214;SDS011;66210;53.282;9.864;2024-03-23T07:33:34;11.27;;;4.00;;
77214;SDS011;66210;53.282;9.864;2024-03-23T07:36:01;21.63;;;4.47;;
77214;SDS011;66210;53.282;9.864;2024-03-23T07:38:28;19.55;;;4.05;;
77214;SDS011;66210;53.282;9.864;2024-03-23T07:43:30;20.20;;;3.65;;
77214;SDS011;66210;53.282;9.864;2024-03-23T07:45:59;14.23;;;3.67;;
77214;SDS011;66210;53.282;9.864;2024-03-23T07:48:25;20.77;;;3.95;;
77214;SDS011;66210;53.282;9.864;2024-03-23T07:51:00;20.13;;;4.68;;
77214;SDS011;66210;53.282;9.864;2024-03-23T07:53:31;19.42;;;4.00;;
77214;SDS011;66210;53.282;9.864;2024-03-23T07:55:58;17.65;;;3.75;;
77214;SDS011;66210;53.282;9.864;2024-03-23T07:58:29;13.38;;;3.13;;
77214;SDS011;66210;53.282;9.864;2024-03-23T08:00:55;15.07;;;3.58;;
77214;SDS011;66210;53.282;9.864;2024-03-23T08:03:21;18.08;;;3.78;;
77214;SDS011;66210;53.282;9.864;2024-03-23T08:05:48;14.75;;;3.42;;
77214;SDS011;66210;53.282;9.864;2024-03-23T08:08:14;12.90;;;3.17;;
77214;SDS011;66210;53.282;9.864;2024-03-23T08:10:52;22.48;;;3.80;;
77214;SDS011;66210;53.282;9.864;2024-03-23T08:13:20;14.73;;;3.25;;
77214;SDS011;66210;53.282;9.864;2024-03-23T08:15:47;18.40;;;3.47;;
77214;SDS011;66210;53.282;9.864;2024-03-23T08:18:12;19.70;;;2.95;;
77214;SDS011;66210;53.282;9.864;2024-03-23T08:20:38;16.15;;;2.88;;
77214;SDS011;66210;53.282;9.864;2024-03-23T08:23:07;16.23;;;3.65;;
77214;SDS011;66210;53.282;9.864;2024-03-23T08:25:34;16.38;;;3.80;;
77214;SDS011;66210;53.282;9.864;2024-03-23T08:28:00;21.33;;;3.33;;
77214;SDS011;66210;53.282;9.864;2024-03-23T08:30:26;14.88;;;3.25;;
77214;SDS011;66210;53.282;9.864;2024-03-23T08:32:52;18.92;;;3.35;;
77214;SDS011;66210;53.282;9.864;2024-03-23T08:35:17;11.88;;;3.22;;
77214;SDS011;66210;53.282;9.864;2024-03-23T08:37:43;16.48;;;3.10;;
77214;SDS011;66210;53.282;9.864;2024-03-23T08:40:09;17.65;;;3.40;;
77214;SDS011;66210;53.282;9.864;2024-03-23T08:42:35;18.42;;;3.63;;
77214;SDS011;66210;53.282;9.864;2024-03-23T08:45:00;19.55;;;3.60;;
77214;SDS011;66210;53.282;9.864;2024-03-23T08:47:33;16.95;;;3.13;;
77214;SDS011;66210;53.282;9.864;2024-03-23T08:50:00;15.30;;;2.60;;
77214;SDS011;66210;53.282;9.864;2024-03-23T08:52:25;13.60;;;3.05;;
77214;SDS011;66210;53.282;9.864;2024-03-23T08:54:53;19.02;;;3.25;;
77214;SDS011;66210;53.282;9.864;2024-03-23T08:57:19;19.17;;;3.83;;
77214;SDS011;66210;53.282;9.864;2024-03-23T08:59:45;16.67;;;3.47;;
77214;SDS011;66210;53.282;9.864;2024-03-23T09:02:10;15.75;;;3.15;;
77214;SDS011;66210;53.282;9.864;2024-03-23T09:04:36;14.43;;;2.80;;
77214;SDS011;66210;53.282;9.864;2024-03-23T09:07:02;22.58;;;2.97;;
77214;SDS011;66210;53.282;9.864;2024-03-23T09:09:27;18.77;;;3.15;;
77214;SDS011;66210;53.282;9.864;2024-03-23T09:11:53;14.90;;;2.92;;
77214;SDS011;66210;53.282;9.864;2024-03-23T09:14:19;17.67;;;3.00;;
77214;SDS011;66210;53.282;9.864;2024-03-23T09:16:45;12.55;;;2.20;;
77214;SDS011;66210;53.282;9.864;2024-03-23T09:19:11;11.75;;;2.40;;
77214;SDS011;66210;53.282;9.864;2024-03-23T09:21:37;18.17;;;3.22;;
77214;SDS011;66210;53.282;9.864;2024-03-23T09:24:02;15.00;;;3.20;;
77214;SDS011;66210;53.282;9.864;2024-03-23T09:26:28;16.42;;;2.72;;
77214;SDS011;66210;53.282;9.864;2024-03-23T09:28:55;15.20;;;2.60;;
77214;SDS011;66210;53.282;9.864;2024-03-23T09:31:21;14.30;;;2.75;;
77214;SDS011;66210;53.282;9.864;2024-03-23T09:33:47;13.20;;;2.90;;
77214;SDS011;66210;53.282;9.864;2024-03-23T09:36:13;9.75;;;2.00;;
77214;SDS011;66210;53.282;9.864;2024-03-23T09:38:40;15.30;;;3.75;;
77214;SDS011;66210;53.282;9.864;2024-03-23T09:41:07;15.63;;;2.83;;
77214;SDS011;66210;53.282;9.864;2024-03-23T09:43:34;12.90;;;3.92;;
77214;SDS011;66210;53.282;9.864;2024-03-23T09:46:01;13.85;;;2.85;;
77214;SDS011;66210;53.282;9.864;2024-03-23T09:48:28;8.05;;;2.60;;
77214;SDS011;66210;53.282;9.864;2024-03-23T09:50:54;14.82;;;2.40;;
77214;SDS011;66210;53.282;9.864;2024-03-23T09:53:19;13.02;;;2.80;;
77214;SDS011;66210;53.282;9.864;2024-03-23T09:55:47;7.65;;;2.70;;
77214;SDS011;66210;53.282;9.864;2024-03-23T09:58:17;8.48;;;2.30;;
77214;SDS011;66210;53.282;9.864;2024-03-23T10:00:44;17.55;;;3.15;;
77214;SDS011;66210;53.282;9.864;2024-03-23T10:03:10;12.23;;;2.60;;
77214;SDS011;66210;53.282;9.864;2024-03-23T10:05:37;9.13;;;2.13;;
77214;SDS011;66210;53.282;9.864;2024-03-23T10:10:41;11.98;;;2.58;;
77214;SDS011;66210;53.282;9.864;2024-03-23T10:13:07;10.98;;;2.15;;
77214;SDS011;66210;53.282;9.864;2024-03-23T10:15:33;11.77;;;2.05;;
77214;SDS011;66210;53.282;9.864;2024-03-23T10:18:16;9.77;;;2.17;;
77214;SDS011;66210;53.282;9.864;2024-03-23T10:20:43;11.38;;;2.22;;
77214;SDS011;66210;53.282;9.864;2024-03-23T10:23:15;12.35;;;2.40;;
77214;SDS011;66210;53.282;9.864;2024-03-23T10:25:42;8.07;;;2.10;;
77214;SDS011;66210;53.282;9.864;2024-03-23T10:28:08;11.18;;;2.00;;
77214;SDS011;66210;53.282;9.864;2024-03-23T10:30:35;12.25;;;2.10;;
77214;SDS011;66210;53.282;9.864;2024-03-23T10:33:10;7.95;;;2.35;;
77214;SDS011;66210;53.282;9.864;2024-03-23T10:35:36;12.07;;;2.08;;
77214;SDS011;66210;53.282;9.864;2024-03-23T10:38:04;12.95;;;2.15;;
77214;SDS011;66210;53.282;9.864;2024-03-23T10:40:33;10.65;;;2.08;;
77214;SDS011;66210;53.282;9.864;2024-03-23T10:43:00;10.52;;;2.10;;
77214;SDS011;66210;53.282;9.864;2024-03-23T10:45:25;8.25;;;2.15;;
77214;SDS011;66210;53.282;9.864;2024-03-23T10:47:51;9.63;;;2.08;;
77214;SDS011;66210;53.282;9.864;2024-03-23T10:50:17;8.95;;;2.38;;
77214;SDS011;66210;53.282;9.864;2024-03-23T10:52:45;7.75;;;1.75;;
77214;SDS011;66210;53.282;9.864;2024-03-23T10:55:13;9.82;;;2.00;;
77214;SDS011;66210;53.282;9.864;2024-03-23T10:57:48;8.35;;;2.03;;
77214;SDS011;66210;53.282;9.864;2024-03-23T11:00:17;10.05;;;2.45;;
77214;SDS011;66210;53.282;9.864;2024-03-23T11:02:43;8.65;;;1.90;;
77214;SDS011;66210;53.282;9.864;2024-03-23T11:07:50;7.88;;;1.80;;
77214;SDS011;66210;53.282;9.864;2024-03-23T11:10:26;8.25;;;1.83;;
77214;SDS011;66210;53.282;9.864;2024-03-23T11:12:55;10.27;;;1.90;;
77214;SDS011;66210;53.282;9.864;2024-03-23T11:15:21;5.45;;;1.60;;
77214;SDS011;66210;53.282;9.864;2024-03-23T11:18:03;7.70;;;2.17;;
77214;SDS011;66210;53.282;9.864;2024-03-23T11:20:34;10.48;;;1.90;;
77214;SDS011;66210;53.282;9.864;2024-03-23T11:23:01;7.65;;;1.80;;
77214;SDS011;66210;53.282;9.864;2024-03-23T11:25:27;10.18;;;1.83;;
77214;SDS011;66210;53.282;9.864;2024-03-23T11:27:54;12.40;;;1.75;;
77214;SDS011;66210;53.282;9.864;2024-03-23T11:30:24;10.43;;;2.00;;
77214;SDS011;66210;53.282;9.864;2024-03-23T11:32:52;6.03;;;1.60;;
77214;SDS011;66210;53.282;9.864;2024-03-23T11:40:56;6.88;;;1.98;;
77214;SDS011;66210;53.282;9.864;2024-03-23T11:43:21;7.18;;;2.00;;
77214;SDS011;66210;53.282;9.864;2024-03-23T11:45:48;8.65;;;1.98;;
77214;SDS011;66210;53.282;9.864;2024-03-23T11:48:20;7.15;;;1.90;;
77214;SDS011;66210;53.282;9.864;2024-03-23T11:50:48;9.80;;;1.65;;
77214;SDS011;66210;53.282;9.864;2024-03-23T11:53:21;6.35;;;1.60;;
77214;SDS011;66210;53.282;9.864;2024-03-23T11:55:58;8.32;;;1.60;;
77214;SDS011;66210;53.282;9.864;2024-03-23T11:58:25;7.22;;;1.83;;
77214;SDS011;66210;53.282;9.864;2024-03-23T12:00:52;6.47;;;1.95;;
77214;SDS011;66210;53.282;9.864;2024-03-23T12:03:21;10.40;;;2.22;;
77214;SDS011;66210;53.282;9.864;2024-03-23T12:05:51;10.18;;;2.10;;
77214;SDS011;66210;53.282;9.864;2024-03-23T12:08:36;5.95;;;1.80;;
77214;SDS011;66210;53.282;9.864;2024-03-23T12:11:14;4.03;;;1.52;;
77214;SDS011;66210;53.282;9.864;2024-03-23T12:13:41;6.68;;;2.08;;
77214;SDS011;66210;53.282;9.864;2024-03-23T12:16:19;8.48;;;2.00;;
77214;SDS011;66210;53.282;9.864;2024-03-23T12:18:47;6.07;;;1.83;;
77214;SDS011;66210;53.282;9.864;2024-03-23T12:21:14;5.32;;;1.77;;
77214;SDS011;66210;53.282;9.864;2024-03-23T12:23:40;10.63;;;2.42;;
77214;SDS011;66210;53.282;9.864;2024-03-23T12:26:07;10.27;;;2.10;;
77214;SDS011;66210;53.282;9.864;2024-03-23T12:28:33;11.20;;;2.20;;
77214;SDS011;66210;53.282;9.864;2024-03-23T12:30:59;6.32;;;2.03;;
77214;SDS011;66210;53.282;9.864;2024-03-23T12:33:25;3.97;;;1.50;;
77214;SDS011;66210;53.282;9.864;2024-03-23T12:35:51;6.88;;;1.70;;
77214;SDS011;66210;53.282;9.864;2024-03-23T12:38:17;6.25;;;1.70;;
77214;SDS011;66210;53.282;9.864;2024-03-23T12:40:46;4.20;;;1.52;;
77214;SDS011;66210;53.282;9.864;2024-03-23T12:43:16;5.38;;;1.80;;
77214;SDS011;66210;53.282;9.864;2024-03-23T12:45:46;3.45;;;1.60;;
77214;SDS011;66210;53.282;9.864;2024-03-23T12:50:38;3.83;;;1.30;;
77214;SDS011;66210;53.282;9.864;2024-03-23T12:53:04;2.47;;;1.35;;
77214;SDS011;66210;53.282;9.864;2024-03-23T12:55:30;1.80;;;0.88;;
77214;SDS011;66210;53.282;9.864;2024-03-23T12:57:55;4.82;;;1.20;;
77214;SDS011;66210;53.282;9.864;2024-03-23T13:00:22;4.35;;;1.40;;
77214;SDS011;66210;53.282;9.864;2024-03-23T13:02:48;2.08;;;1.10;;
77214;SDS011;66210;53.282;9.864;2024-03-23T13:05:13;3.03;;;1.17;;
77214;SDS011;66210;53.282;9.864;2024-03-23T13:07:39;2.10;;;1.05;;
77214;SDS011;66210;53.282;9.864;2024-03-23T13:10:05;6.43;;;1.40;;
77214;SDS011;66210;53.282;9.864;2024-03-23T13:12:32;4.22;;;0.93;;
77214;SDS011;66210;53.282;9.864;2024-03-23T13:14:59;5.40;;;1.92;;
77214;SDS011;66210;53.282;9.864;2024-03-23T13:17:25;3.78;;;1.77;;
77214;SDS011;66210;53.282;9.864;2024-03-23T13:19:53;4.68;;;1.15;;
77214;SDS011;66210;53.282;9.864;2024-03-23T13:22:22;2.55;;;0.88;;
77214;SDS011;66210;53.282;9.864;2024-03-23T13:24:48;2.75;;;1.02;;
77214;SDS011;66210;53.282;9.864;2024-03-23T13:27:13;5.20;;;1.05;;
77214;SDS011;66210;53.282;9.864;2024-03-23T13:29:39;2.05;;;0.80;;
77214;SDS011;66210;53.282;9.864;2024-03-23T13:32:05;2.10;;;0.70;;
77214;SDS011;66210;53.282;9.864;2024-03-23T13:34:32;1.08;;;0.90;;
77214;SDS011;66210;53.282;9.864;2024-03-23T13:36:58;3.47;;;1.00;;
77214;SDS011;66210;53.282;9.864;2024-03-23T13:39:24;2.00;;;0.73;;
77214;SDS011;66210;53.282;9.864;2024-03-23T13:41:51;0.70;;;0.70;;
77214;SDS011;66210;53.282;9.864;2024-03-23T13:44:16;4.15;;;0.90;;
77214;SDS011;66210;53.282;9.864;2024-03-23T13:46:42;6.78;;;1.10;;
77214;SDS011;66210;53.282;9.864;2024-03-23T13:49:24;2.10;;;0.60;;
77214;SDS011;66210;53.282;9.864;2024-03-23T13:51:55;5.90;;;1.13;;
77214;SDS011;66210;53.282;9.864;2024-03-23T13:54:22;0.95;;;0.90;;
77214;SDS011;66210;53.282;9.864;2024-03-23T13:56:53;5.35;;;1.20;;
77214;SDS011;66210;53.282;9.864;2024-03-23T13:59:20;3.40;;;1.45;;
77214;SDS011;66210;53.282;9.864;2024-03-23T14:01:47;2.83;;;0.77;;
77214;SDS011;66210;53.282;9.864;2024-03-23T14:04:13;1.17;;;0.85;;
77214;SDS011;66210;53.282;9.864;2024-03-23T14:06:39;1.88;;;0.95;;
77214;SDS011;66210;53.282;9.864;2024-03-23T14:09:08;1.92;;;1.00;;
77214;SDS011;66210;53.282;9.864;2024-03-23T14:11:36;3.08;;;0.82;;
77214;SDS011;66210;53.282;9.864;2024-03-23T14:14:02;2.15;;;1.08;;
77214;SDS011;66210;53.282;9.864;2024-03-23T14:16:29;3.08;;;1.20;;
77214;SDS011;66210;53.282;9.864;2024-03-23T14:18:55;2.63;;;1.13;;
77214;SDS011;66210;53.282;9.864;2024-03-23T14:21:21;2.60;;;1.25;;
77214;SDS011;66210;53.282;9.864;2024-03-23T14:23:47;1.50;;;1.10;;
77214;SDS011;66210;53.282;9.864;2024-03-23T14:26:12;3.15;;;0.77;;
77214;SDS011;66210;53.282;9.864;2024-03-23T14:28:38;1.80;;;0.85;;
77214;SDS011;66210;53.282;9.864;2024-03-23T14:31:04;1.48;;;1.00;;
77214;SDS011;66210;53.282;9.864;2024-03-23T14:33:38;1.90;;;1.08;;
77214;SDS011;66210;53.282;9.864;2024-03-23T14:38:40;4.43;;;0.90;;
77214;SDS011;66210;53.282;9.864;2024-03-23T14:41:06;2.10;;;1.13;;
77214;SDS011;66210;53.282;9.864;2024-03-23T14:43:31;4.28;;;1.42;;
77214;SDS011;66210;53.282;9.864;2024-03-23T14:51:07;2.33;;;0.90;;
77214;SDS011;66210;53.282;9.864;2024-03-23T14:53:36;2.50;;;1.00;;
77214;SDS011;66210;53.282;9.864;2024-03-23T14:56:05;4.10;;;1.30;;
77214;SDS011;66210;53.282;9.864;2024-03-23T14:58:32;3.05;;;1.17;;
77214;SDS011;66210;53.282;9.864;2024-03-23T15:01:00;3.45;;;1.27;;
77214;SDS011;66210;53.282;9.864;2024-03-23T15:03:30;6.38;;;1.55;;
77214;SDS011;66210;53.282;9.864;2024-03-23T15:05:56;2.90;;;1.08;;
77214;SDS011;66210;53.282;9.864;2024-03-23T15:08:22;1.42;;;0.90;;
77214;SDS011;66210;53.282;9.864;2024-03-23T15:10:48;1.67;;;1.10;;
77214;SDS011;66210;53.282;9.864;2024-03-23T15:13:14;4.03;;;1.00;;
77214;SDS011;66210;53.282;9.864;2024-03-23T15:15:40;2.60;;;1.00;;
77214;SDS011;66210;53.282;9.864;2024-03-23T15:18:13;4.20;;;1.02;;
77214;SDS011;66210;53.282;9.864;2024-03-23T15:20:40;1.77;;;1.05;;
77214;SDS011;66210;53.282;9.864;2024-03-23T15:23:07;3.15;;;1.20;;
77214;SDS011;66210;53.282;9.864;2024-03-23T15:25:33;2.58;;;1.13;;
77214;SDS011;66210;53.282;9.864;2024-03-23T15:27:59;2.75;;;1.10;;
77214;SDS011;66210;53.282;9.864;2024-03-23T15:30:26;1.77;;;1.20;;
77214;SDS011;66210;53.282;9.864;2024-03-23T15:32:52;4.03;;;1.10;;
77214;SDS011;66210;53.282;9.864;2024-03-23T15:35:18;2.35;;;1.08;;
77214;SDS011;66210;53.282;9.864;2024-03-23T15:37:49;5.97;;;1.00;;
77214;SDS011;66210;53.282;9.864;2024-03-23T15:40:15;2.67;;;1.30;;
77214;SDS011;66210;53.282;9.864;2024-03-23T15:42:41;3.20;;;1.70;;
77214;SDS011;66210;53.282;9.864;2024-03-23T15:45:07;5.93;;;1.40;;
77214;SDS011;66210;53.282;9.864;2024-03-23T15:47:34;1.80;;;1.13;;
77214;SDS011;66210;53.282;9.864;2024-03-23T15:50:00;2.45;;;1.55;;
77214;SDS011;66210;53.282;9.864;2024-03-23T15:52:28;2.67;;;1.60;;
77214;SDS011;66210;53.282;9.864;2024-03-23T15:54:54;5.93;;;1.38;;
77214;SDS011;66210;53.282;9.864;2024-03-23T15:57:23;3.17;;;1.17;;